Time;durP1;ratioP1;P1;durP2;ratioP2;P2;SDS_P1;SDS_P2;PMS_P1;PMS_P2;Temp;Humidity;BMP_temperature;BMP_pressure;BME280_temperature;BME280_humidity;BME280_pressure;Samples;Min_cycle;Max_cycle;Signal;HPM_P1;HPM_P2
2023/08/30 00:00:05;;;;;;;12.43;8.80;;;15.10;99.90;;;;;;4247706;28;20046;-81
2023/08/30 00:02:05;;;;;;;12.38;8.65;;;15.10;99.90;;;;;;4225892;28;20381;-81
2023/08/30 00:04:06;;;;;;;13.48;9.27;;;15.10;99.90;;;;;;4216429;28;20047;-81
2023/08/30 00:06:07;;;;;;;10.68;8.15;;;15.10;99.90;;;;;;4234696;28;20150;-81
2023/08/30 00:08:09;;;;;;;13.05;10.02;;;15.10;99.90;;;;;;4235170;28;20039;-81
2023/08/30 00:10:10;;;;;;;13.13;9.18;;;16.10;99.90;;;;;;4236141;28;20044;-81
2023/08/30 00:12:11;;;;;;;10.52;8.25;;;15.00;99.90;;;;;;4219341;28;20107;-81
2023/08/30 00:14:11;;;;;;;13.65;8.90;;;15.00;99.90;;;;;;4242272;28;20500;-80
2023/08/30 00:16:12;;;;;;;14.50;9.32;;;15.00;99.90;;;;;;4235690;28;20051;-81
2023/08/30 00:18:13;;;;;;;13.77;8.07;;;15.00;99.90;;;;;;4217788;28;20051;-80
2023/08/30 00:20:14;;;;;;;13.77;8.80;;;15.00;99.90;;;;;;4234942;28;20051;-81
2023/08/30 00:22:15;;;;;;;14.32;9.10;;;15.00;99.90;;;;;;4234433;28;20036;-81
2023/08/30 00:24:16;;;;;;;13.10;8.52;;;14.90;99.90;;;;;;4234894;28;20491;-81
2023/08/30 00:26:16;;;;;;;14.45;8.75;;;14.90;99.90;;;;;;4233757;28;20073;-81
2023/08/30 00:28:17;;;;;;;12.15;8.32;;;14.90;99.90;;;;;;4241719;27;20043;-82
2023/08/30 00:30:18;;;;;;;13.05;8.65;;;15.00;99.90;;;;;;4237301;27;20043;-81
2023/08/30 00:32:19;;;;;;;18.20;9.98;;;14.80;99.90;;;;;;4216097;28;20098;-81
2023/08/30 00:34:20;;;;;;;11.43;8.27;;;14.80;99.90;;;;;;4233756;28;20069;-81
2023/08/30 00:36:21;;;;;;;11.82;8.60;;;14.80;99.90;;;;;;4234043;28;20039;-81
2023/08/30 00:38:22;;;;;;;13.18;8.10;;;14.70;99.90;;;;;;4215278;28;20051;-81
2023/08/30 00:40:24;;;;;;;12.63;8.68;;;14.70;99.90;;;;;;4233784;28;20047;-81
2023/08/30 00:42:25;;;;;;;13.93;8.63;;;14.70;99.90;;;;;;4233637;28;20077;-81
2023/08/30 00:44:26;;;;;;;12.38;8.55;;;14.70;99.90;;;;;;4234126;28;20483;-81
2023/08/30 00:46:28;;;;;;;14.43;7.85;;;14.60;99.90;;;;;;4233938;28;20124;-81
2023/08/30 00:48:28;;;;;;;12.23;8.00;;;14.60;99.90;;;;;;4234797;27;20043;-81
2023/08/30 00:50:29;;;;;;;11.77;8.73;;;14.70;99.90;;;;;;4249210;27;20544;-81
2023/08/30 00:52:30;;;;;;;12.60;9.25;;;14.60;99.90;;;;;;4250242;27;20100;-81
2023/08/30 00:54:31;;;;;;;12.52;8.95;;;14.50;99.90;;;;;;4245326;27;20114;-82
2023/08/30 00:56:33;;;;;;;14.27;8.68;;;14.40;99.90;;;;;;4232644;28;20036;-82
2023/08/30 00:58:34;;;;;;;12.35;7.97;;;14.50;99.90;;;;;;4233101;28;20052;-81
2023/08/30 01:00:35;;;;;;;14.07;9.18;;;14.40;99.90;;;;;;4232775;28;20484;-81
2023/08/30 01:02:36;;;;;;;11.77;8.30;;;13.70;99.90;;;;;;4232985;28;20051;-81
2023/08/30 01:04:37;;;;;;;12.90;8.30;;;14.30;99.90;;;;;;4232888;28;20083;-81
2023/08/30 01:06:38;;;;;;;13.68;8.35;;;14.30;99.90;;;;;;4232871;28;20459;-81
2023/08/30 01:08:41;;;;;;;11.13;7.78;;;14.30;99.90;;;;;;4214208;28;20052;-81
2023/08/30 01:10:57;;;;;;;11.60;8.18;;;14.30;99.90;;;;;;4232756;28;20070;-81
2023/08/30 01:13:08;;;;;;;11.48;7.70;;;14.20;99.90;;;;;;4233100;28;20047;-81
2023/08/30 01:15:18;;;;;;;12.68;7.93;;;14.20;99.90;;;;;;4240097;27;20043;-81
2023/08/30 01:17:21;;;;;;;11.93;7.82;;;14.20;99.90;;;;;;4236452;27;20475;-80
2023/08/30 01:19:38;;;;;;;10.00;7.30;;;14.10;99.90;;;;;;4234125;28;20116;-80
2023/08/30 01:21:56;;;;;;;11.45;7.80;;;14.10;99.90;;;;;;4234080;28;20043;-80
2023/08/30 01:24:00;;;;;;;11.60;7.15;;;14.10;99.90;;;;;;4232638;28;20498;-81
2023/08/30 01:26:34;;;;;;;14.80;7.53;;;14.00;99.90;;;;;;4232185;28;20092;-81
2023/08/30 01:28:37;;;;;;;12.95;8.35;;;14.00;99.90;;;;;;4231689;28;20555;-81
2023/08/30 01:30:41;;;;;;;11.40;7.40;;;14.00;99.90;;;;;;4230481;28;20458;-81
2023/08/30 01:32:44;;;;;;;14.65;8.02;;;14.00;99.90;;;;;;4231926;27;20110;-81
2023/08/30 01:34:46;;;;;;;13.25;8.35;;;14.00;99.90;;;;;;4246392;27;20096;-81
2023/08/30 01:36:48;;;;;;;10.70;7.47;;;14.00;99.90;;;;;;4249403;27;20080;-81
2023/08/30 01:38:49;;;;;;;11.63;7.85;;;14.00;99.90;;;;;;4230779;28;20047;-81
2023/08/30 01:40:52;;;;;;;12.32;8.45;;;14.00;99.90;;;;;;4249482;27;20469;-81
2023/08/30 01:42:53;;;;;;;10.98;6.00;;;14.00;99.90;;;;;;4249349;27;20054;-81
2023/08/30 01:44:58;;;;;;;11.23;6.40;;;14.00;99.90;;;;;;4213942;28;20847;-81
2023/08/30 01:47:00;;;;;;;8.60;5.93;;;14.00;99.90;;;;;;4257554;27;20043;-81
2023/08/30 01:49:02;;;;;;;11.68;6.50;;;14.30;99.90;;;;;;4261704;27;20039;-81
2023/08/30 01:51:04;;;;;;;10.82;6.30;;;14.00;99.90;;;;;;4241584;28;20044;-80
2023/08/30 01:53:05;;;;;;;10.68;6.95;;;14.00;99.90;;;;;;4246754;27;20372;-81
2023/08/30 01:55:07;;;;;;;12.75;6.53;;;13.90;99.90;;;;;;4250076;27;20432;-81
2023/08/30 01:57:08;;;;;;;11.45;6.30;;;13.90;99.90;;;;;;4231458;28;20051;-81
2023/08/30 01:59:09;;;;;;;10.50;6.45;;;13.90;99.90;;;;;;4249824;27;20387;-81
2023/08/30 02:01:10;;;;;;;9.05;5.72;;;13.90;99.90;;;;;;4249966;27;20046;-81
2023/08/30 02:03:13;;;;;;;10.55;6.07;;;13.90;99.90;;;;;;4248903;27;20047;-81
2023/08/30 02:05:13;;;;;;;9.13;5.53;;;13.90;99.90;;;;;;4246998;27;20043;-81
2023/08/30 02:07:21;;;;;;;12.57;6.13;;;13.80;99.90;;;;;;4245367;27;20054;-81
2023/08/30 02:09:47;;;;;;;12.43;6.38;;;13.90;99.90;;;;;;4249132;27;20118;-81
2023/08/30 02:11:50;;;;;;;12.43;5.65;;;13.90;99.90;;;;;;4230602;28;20469;-81
2023/08/30 02:13:54;;;;;;;7.85;5.45;;;13.80;99.90;;;;;;4248493;27;20058;-81
2023/08/30 02:15:56;;;;;;;8.20;5.32;;;13.80;99.90;;;;;;4248443;27;20057;-81
2023/08/30 02:17:58;;;;;;;11.63;5.95;;;13.80;99.90;;;;;;4248446;27;20050;-81
2023/08/30 02:19:59;;;;;;;9.05;5.72;;;13.80;99.90;;;;;;4249415;27;20042;-81
2023/08/30 02:22:00;;;;;;;9.48;5.88;;;13.70;99.90;;;;;;4230105;28;20043;-81
2023/08/30 02:24:00;;;;;;;10.85;6.20;;;13.70;99.90;;;;;;4248114;27;20112;-81
2023/08/30 02:26:03;;;;;;;8.45;5.68;;;13.70;99.90;;;;;;4241947;27;20036;-80
2023/08/30 02:28:04;;;;;;;8.98;5.75;;;13.70;99.90;;;;;;4253540;27;20039;-80
2023/08/30 02:30:05;;;;;;;10.07;5.88;;;13.70;99.90;;;;;;4268034;27;20065;-79
2023/08/30 02:32:06;;;;;;;9.63;5.55;;;13.70;99.90;;;;;;4242773;28;20126;-80
2023/08/30 02:34:07;;;;;;;7.75;5.20;;;13.70;99.90;;;;;;4230291;28;20043;-80
2023/08/30 02:36:08;;;;;;;9.70;5.40;;;13.70;99.90;;;;;;4249202;27;20368;-80
2023/08/30 02:38:08;;;;;;;8.52;5.57;;;13.70;99.90;;;;;;4248110;27;20230;-80
2023/08/30 02:40:10;;;;;;;9.23;5.28;;;13.70;99.90;;;;;;4248282;27;20047;-80
2023/08/30 02:42:10;;;;;;;7.22;4.93;;;13.70;99.90;;;;;;4229950;28;20036;-80
2023/08/30 02:44:11;;;;;;;8.52;5.88;;;13.70;99.90;;;;;;4220054;28;20539;-81
2023/08/30 02:46:12;;;;;;;8.70;5.50;;;13.70;99.90;;;;;;4213161;28;20047;-80
2023/08/30 02:48:14;;;;;;;9.20;5.45;;;13.80;99.90;;;;;;4231486;28;20403;-79
2023/08/30 02:50:15;;;;;;;8.35;5.30;;;13.80;99.90;;;;;;4231492;28;20048;-79
2023/08/30 02:52:16;;;;;;;8.40;5.32;;;13.70;99.90;;;;;;4232404;27;20398;-79
2023/08/30 02:54:17;;;;;;;10.05;6.53;;;13.80;99.90;;;;;;4229523;28;20556;-79
2023/08/30 02:56:18;;;;;;;8.75;5.38;;;13.80;99.90;;;;;;4248130;27;20042;-79
2023/08/30 02:58:18;;;;;;;8.85;5.50;;;13.80;99.90;;;;;;4247798;28;20067;-79
2023/08/30 03:00:19;;;;;;;8.38;5.40;;;13.80;99.90;;;;;;4242817;28;20103;-80
2023/08/30 03:02:23;;;;;;;7.47;5.03;;;13.80;99.90;;;;;;4247822;28;20039;-80
2023/08/30 03:04:24;;;;;;;8.68;5.07;;;13.80;99.90;;;;;;4248144;28;20087;-80
2023/08/30 03:06:24;;;;;;;7.68;4.88;;;13.80;99.90;;;;;;4248203;28;20036;-80
2023/08/30 03:08:25;;;;;;;9.38;5.10;;;13.80;99.90;;;;;;4248001;28;20103;-79
2023/08/30 03:10:26;;;;;;;9.55;5.38;;;13.80;99.90;;;;;;4241327;28;20505;-79
2023/08/30 03:12:27;;;;;;;6.03;4.38;;;13.80;99.90;;;;;;4229229;28;20663;-79
2023/08/30 03:14:28;;;;;;;9.73;5.35;;;13.70;99.90;;;;;;4247762;28;20062;-79
2023/08/30 03:16:29;;;;;;;8.55;5.32;;;13.80;99.90;;;;;;4229221;28;20559;-80
2023/08/30 03:18:29;;;;;;;8.20;5.80;;;13.70;99.90;;;;;;4246411;28;20043;-79
2023/08/30 03:20:30;;;;;;;8.55;5.90;;;13.70;99.90;;;;;;4242740;28;20050;-79
2023/08/30 03:22:31;;;;;;;11.25;5.68;;;13.70;99.90;;;;;;4247772;28;20043;-79
2023/08/30 03:24:32;;;;;;;11.85;5.68;;;13.60;99.90;;;;;;4247962;28;20118;-79
2023/08/30 03:26:33;;;;;;;8.85;5.68;;;13.60;99.90;;;;;;4247984;28;20044;-79
2023/08/30 03:28:34;;;;;;;8.13;5.28;;;13.50;99.90;;;;;;4220634;28;20051;-79
2023/08/30 03:30:34;;;;;;;9.85;6.00;;;13.60;99.90;;;;;;4212902;28;20111;-79
2023/08/30 03:32:35;;;;;;;8.32;5.63;;;13.50;99.90;;;;;;4231367;28;20058;-79
2023/08/30 03:34:36;;;;;;;10.38;5.85;;;13.40;99.90;;;;;;4231300;28;20043;-79
2023/08/30 03:36:38;;;;;;;13.00;6.10;;;13.40;99.90;;;;;;4236551;27;20039;-79
2023/08/30 03:38:39;;;;;;;8.30;5.72;;;13.40;99.90;;;;;;4234157;28;20043;-79
2023/08/30 03:40:40;;;;;;;11.35;6.22;;;13.40;99.90;;;;;;4216614;28;20044;-79
2023/08/30 03:42:41;;;;;;;11.85;5.75;;;13.40;99.90;;;;;;4234708;28;20046;-78
2023/08/30 03:44:41;;;;;;;8.82;5.82;;;13.30;99.90;;;;;;4234024;28;20075;-79
2023/08/30 03:46:42;;;;;;;11.10;5.68;;;13.30;99.90;;;;;;4234148;28;20122;-79
2023/08/30 03:48:43;;;;;;;12.52;6.72;;;13.30;99.90;;;;;;4233794;28;20032;-79
2023/08/30 03:50:44;;;;;;;12.90;6.45;;;13.30;99.90;;;;;;4216007;28;20042;-79
2023/08/30 03:52:44;;;;;;;11.63;5.70;;;13.20;99.90;;;;;;4238638;27;20043;-80
2023/08/30 03:54:45;;;;;;;12.43;6.15;;;13.20;99.90;;;;;;4234503;28;20051;-78
2023/08/30 03:56:46;;;;;;;10.40;6.60;;;13.20;99.90;;;;;;4235749;28;20040;-78
2023/08/30 03:58:47;;;;;;;13.55;6.72;;;13.20;99.90;;;;;;4237921;28;20046;-79
2023/08/30 04:00:48;;;;;;;10.18;6.57;;;13.10;99.90;;;;;;4233605;28;20047;-79
2023/08/30 04:02:49;;;;;;;10.70;6.13;;;13.10;99.90;;;;;;4234794;28;20043;-79
2023/08/30 04:04:50;;;;;;;12.05;6.22;;;13.10;99.90;;;;;;4240218;27;20110;-79
2023/08/30 04:06:50;;;;;;;11.52;6.18;;;13.10;99.90;;;;;;4250787;27;20498;-79
2023/08/30 04:08:51;;;;;;;9.82;6.75;;;13.10;99.90;;;;;;4231803;28;20116;-79
2023/08/30 04:10:53;;;;;;;12.52;6.97;;;13.10;99.90;;;;;;4250588;27;20054;-79
2023/08/30 04:12:54;;;;;;;11.95;7.20;;;13.00;99.90;;;;;;4246278;27;20046;-79
2023/08/30 04:14:55;;;;;;;20.08;7.65;;;13.00;99.90;;;;;;4214938;28;20087;-79
2023/08/30 04:16:56;;;;;;;13.00;7.20;;;13.00;99.90;;;;;;4233444;28;20173;-79
2023/08/30 04:18:57;;;;;;;11.32;6.85;;;13.00;99.90;;;;;;4233602;28;20040;-79
2023/08/30 04:20:59;;;;;;;11.45;7.03;;;13.00;99.90;;;;;;4214921;28;20594;-79
2023/08/30 04:23:03;;;;;;;11.70;7.35;;;13.00;99.90;;;;;;4233084;28;20442;-78
2023/08/30 04:25:04;;;;;;;10.95;7.20;;;13.00;99.90;;;;;;4233298;28;20552;-79
2023/08/30 04:27:05;;;;;;;11.45;6.95;;;13.00;99.90;;;;;;4233044;28;20111;-78
2023/08/30 04:29:06;;;;;;;12.85;6.93;;;13.70;99.90;;;;;;4236214;27;20481;-79
2023/08/30 04:31:06;;;;;;;11.38;7.63;;;13.00;99.90;;;;;;4233148;28;20395;-79
2023/08/30 04:33:07;;;;;;;12.70;6.82;;;13.00;99.90;;;;;;4233067;28;20089;-78
2023/08/30 04:35:09;;;;;;;11.85;7.20;;;13.00;99.90;;;;;;4233060;28;20054;-79
2023/08/30 04:37:09;;;;;;;11.38;6.78;;;13.00;99.90;;;;;;4232372;28;20087;-79
2023/08/30 04:39:10;;;;;;;11.50;7.18;;;12.90;99.90;;;;;;4233153;28;20556;-79
2023/08/30 04:41:11;;;;;;;14.35;7.47;;;13.00;99.90;;;;;;4214945;28;20044;-79
2023/08/30 04:43:12;;;;;;;11.95;6.95;;;13.00;99.90;;;;;;4232992;28;20443;-78
2023/08/30 04:45:12;;;;;;;14.52;7.72;;;12.90;99.90;;;;;;4214559;28;20048;-79
2023/08/30 04:47:13;;;;;;;11.70;6.28;;;12.90;99.90;;;;;;4242938;27;20039;-79
2023/08/30 04:49:14;;;;;;;12.23;6.93;;;12.90;99.90;;;;;;4249216;27;20788;-79
2023/08/30 04:51:15;;;;;;;10.05;6.63;;;12.90;99.90;;;;;;4231193;28;20130;-79
2023/08/30 04:53:15;;;;;;;10.98;7.47;;;12.90;99.90;;;;;;4249974;27;20462;-79
2023/08/30 04:55:16;;;;;;;11.60;6.15;;;12.90;99.90;;;;;;4249755;27;20046;-79
2023/08/30 04:57:18;;;;;;;11.27;6.88;;;12.90;99.90;;;;;;4231137;28;20055;-79
2023/08/30 04:59:18;;;;;;;12.30;5.95;;;12.90;99.90;;;;;;4231668;28;20505;-79
2023/08/30 05:01:19;;;;;;;12.15;6.35;;;12.90;99.90;;;;;;4243300;27;20116;-79
2023/08/30 05:03:22;;;;;;;14.65;7.03;;;13.00;99.90;;;;;;4230951;28;20059;-79
2023/08/30 05:05:22;;;;;;;9.48;6.00;;;13.00;99.90;;;;;;4231311;28;20040;-79
2023/08/30 05:07:23;;;;;;;9.90;6.15;;;13.00;99.90;;;;;;4249187;27;20532;-79
2023/08/30 05:09:24;;;;;;;12.40;6.05;;;13.00;99.90;;;;;;4231595;28;20100;-79
2023/08/30 05:11:25;;;;;;;11.95;7.18;;;13.00;99.90;;;;;;4249613;27;20043;-79
2023/08/30 05:13:26;;;;;;;8.98;5.78;;;13.00;99.90;;;;;;4249581;27;20081;-79
2023/08/30 05:15:26;;;;;;;9.80;6.28;;;13.00;99.90;;;;;;4230628;28;20105;-79
2023/08/30 05:17:28;;;;;;;10.88;6.30;;;13.10;99.90;;;;;;4245714;27;20039;-79
2023/08/30 05:19:29;;;;;;;10.25;5.68;;;13.10;99.90;;;;;;4232299;28;20048;-79
2023/08/30 05:21:30;;;;;;;12.48;6.47;;;13.10;99.90;;;;;;4232313;28;20040;-79
2023/08/30 05:23:31;;;;;;;11.20;5.88;;;13.10;99.90;;;;;;4213968;28;20050;-79
2023/08/30 05:25:32;;;;;;;11.00;6.07;;;13.20;99.90;;;;;;4232295;28;20040;-79
2023/08/30 05:27:35;;;;;;;9.55;6.10;;;13.20;99.90;;;;;;4214167;28;20067;-79
2023/08/30 05:29:36;;;;;;;10.25;6.32;;;13.20;99.90;;;;;;4213548;28;20044;-79
2023/08/30 05:31:37;;;;;;;11.85;6.95;;;13.20;99.90;;;;;;4214098;28;20127;-78
2023/08/30 05:33:37;;;;;;;10.57;6.30;;;13.30;99.90;;;;;;4235310;27;20042;-79
2023/08/30 05:35:38;;;;;;;11.50;5.97;;;13.30;99.90;;;;;;4221527;28;20105;-79
2023/08/30 05:37:39;;;;;;;11.02;6.82;;;13.30;99.90;;;;;;4214056;28;20044;-79
2023/08/30 05:39:39;;;;;;;13.13;6.60;;;13.30;99.90;;;;;;4213894;28;20055;-79
2023/08/30 05:41:40;;;;;;;10.05;6.25;;;13.30;99.90;;;;;;4213774;28;20119;-79
2023/08/30 05:43:41;;;;;;;11.13;6.97;;;13.30;99.90;;;;;;4231980;28;20407;-79
2023/08/30 05:45:41;;;;;;;12.07;6.28;;;13.30;99.90;;;;;;4236371;27;20043;-79
2023/08/30 05:47:42;;;;;;;11.65;6.68;;;13.40;99.90;;;;;;4231655;28;20040;-80
2023/08/30 05:49:44;;;;;;;17.48;6.90;;;13.40;99.90;;;;;;4231913;28;20101;-79
2023/08/30 05:51:45;;;;;;;12.80;7.00;;;13.40;99.90;;;;;;4231444;28;20050;-79
2023/08/30 05:53:46;;;;;;;11.75;7.32;;;13.40;99.90;;;;;;4234875;27;20036;-81
2023/08/30 05:55:46;;;;;;;12.43;7.20;;;13.40;99.90;;;;;;4233190;28;20043;-80
2023/08/30 05:57:47;;;;;;;11.05;7.45;;;13.40;99.90;;;;;;4231852;28;20117;-80
2023/08/30 05:59:48;;;;;;;11.57;6.88;;;13.40;99.90;;;;;;4230789;28;20130;-80
2023/08/30 06:01:48;;;;;;;12.27;7.18;;;13.40;99.90;;;;;;4231632;28;20344;-80
2023/08/30 06:03:49;;;;;;;12.02;7.13;;;13.40;99.90;;;;;;4231618;28;20044;-80
2023/08/30 06:05:50;;;;;;;10.52;6.35;;;13.40;99.90;;;;;;4231056;28;20480;-80
2023/08/30 06:07:52;;;;;;;13.93;7.43;;;13.40;99.90;;;;;;4231223;28;20475;-77
2023/08/30 06:09:53;;;;;;;13.57;7.85;;;13.40;99.90;;;;;;4241516;27;20140;-79
2023/08/30 06:11:54;;;;;;;13.23;7.05;;;13.50;99.90;;;;;;4248387;27;20511;-78
2023/08/30 06:13:54;;;;;;;10.70;6.57;;;13.70;99.90;;;;;;4248311;27;20479;-77
2023/08/30 06:15:55;;;;;;;16.60;7.65;;;13.60;99.90;;;;;;4245477;27;20118;-77
2023/08/30 06:17:56;;;;;;;11.45;7.20;;;13.60;99.90;;;;;;4235359;27;20737;-78
2023/08/30 06:19:57;;;;;;;12.20;6.40;;;13.60;99.90;;;;;;4248884;27;20483;-79
2023/08/30 06:21:57;;;;;;;12.52;6.28;;;13.70;99.90;;;;;;4248046;27;20050;-78
2023/08/30 06:23:58;;;;;;;14.00;7.07;;;13.80;99.90;;;;;;4213284;28;20048;-78
2023/08/30 06:26:00;;;;;;;11.60;6.40;;;13.80;99.90;;;;;;4234446;27;20035;-78
2023/08/30 06:28:02;;;;;;;10.70;6.60;;;13.90;99.90;;;;;;4224212;28;20055;-79
2023/08/30 06:30:04;;;;;;;12.82;7.10;;;14.00;99.90;;;;;;4248890;27;20505;-79
2023/08/30 06:32:05;;;;;;;9.95;6.30;;;14.10;99.90;;;;;;4248671;27;20096;-79
2023/08/30 06:34:06;;;;;;;9.55;5.80;;;14.10;99.90;;;;;;4247986;27;20066;-79
2023/08/30 06:36:06;;;;;;;10.05;5.90;;;14.20;99.90;;;;;;4222415;28;20043;-79
2023/08/30 06:38:07;;;;;;;14.73;6.82;;;14.20;99.90;;;;;;4231457;28;20051;-79
2023/08/30 06:40:08;;;;;;;10.10;6.93;;;14.30;99.90;;;;;;4213289;28;20047;-79
2023/08/30 06:42:09;;;;;;;13.75;6.47;;;14.30;99.90;;;;;;4231702;28;20549;-79
2023/08/30 06:44:10;;;;;;;12.38;6.82;;;14.30;99.90;;;;;;4230970;28;20047;-79
2023/08/30 06:46:11;;;;;;;14.43;6.70;;;14.40;99.90;;;;;;4238339;27;20046;-79
2023/08/30 06:48:11;;;;;;;10.98;6.28;;;14.40;99.90;;;;;;4247856;27;20035;-79
2023/08/30 06:50:12;;;;;;;10.18;5.88;;;14.40;99.90;;;;;;4247658;27;20096;-79
2023/08/30 06:52:13;;;;;;;11.00;5.70;;;14.40;99.90;;;;;;4247778;27;20426;-79
2023/08/30 06:54:14;;;;;;;11.38;6.55;;;14.50;99.90;;;;;;4247808;27;20130;-79
2023/08/30 06:56:14;;;;;;;12.40;6.10;;;14.40;99.90;;;;;;4248036;27;20391;-79
2023/08/30 06:58:15;;;;;;;9.32;5.72;;;14.50;99.90;;;;;;4247999;28;20509;-79
2023/08/30 07:00:17;;;;;;;10.75;5.97;;;14.40;99.90;;;;;;4247493;28;20050;-79
2023/08/30 07:02:17;;;;;;;12.15;6.55;;;14.40;99.90;;;;;;4236114;28;20417;-81
2023/08/30 07:04:18;;;;;;;11.52;5.88;;;14.40;99.90;;;;;;4232328;28;20163;-81
2023/08/30 07:06:19;;;;;;;11.65;6.35;;;14.50;99.90;;;;;;4248378;28;20054;-81
2023/08/30 07:08:21;;;;;;;11.18;5.80;;;14.50;99.90;;;;;;4213930;28;20075;-81
2023/08/30 07:10:21;;;;;;;9.35;5.82;;;14.60;99.90;;;;;;4228375;28;20059;-80
2023/08/30 07:12:22;;;;;;;9.27;5.43;;;14.70;99.90;;;;;;4233247;28;20044;-81
2023/08/30 07:14:23;;;;;;;9.27;5.40;;;14.80;99.90;;;;;;4232822;28;20523;-80
2023/08/30 07:16:23;;;;;;;9.25;5.68;;;14.90;99.90;;;;;;4251592;27;20043;-81
2023/08/30 07:18:24;;;;;;;9.82;5.22;;;14.90;99.90;;;;;;4233425;28;20040;-80
2023/08/30 07:20:25;;;;;;;11.30;6.15;;;14.90;99.90;;;;;;4239748;27;20043;-81
2023/08/30 07:22:26;;;;;;;10.95;5.40;;;14.90;99.90;;;;;;4245924;27;20043;-80
2023/08/30 07:24:27;;;;;;;9.77;5.70;;;14.90;99.90;;;;;;4233637;28;20035;-81
2023/08/30 07:26:34;;;;;;;11.38;4.95;;;14.90;99.90;;;;;;4248099;27;20144;-81
2023/08/30 07:28:35;;;;;;;8.75;5.00;;;15.00;99.90;;;;;;4251138;27;20520;-81
2023/08/30 07:30:35;;;;;;;9.43;5.20;;;15.00;99.90;;;;;;4232783;28;20051;-81
2023/08/30 07:32:37;;;;;;;9.68;5.18;;;15.00;99.90;;;;;;4250348;27;20399;-81
2023/08/30 07:34:38;;;;;;;10.32;5.28;;;15.00;99.90;;;;;;4251318;27;20039;-81
2023/08/30 07:36:39;;;;;;;9.88;5.30;;;15.00;99.90;;;;;;4250954;27;20082;-81
2023/08/30 07:38:40;;;;;;;9.85;5.57;;;15.00;99.90;;;;;;4238629;27;20108;-81
2023/08/30 07:40:40;;;;;;;11.85;5.50;;;15.00;99.90;;;;;;4232625;28;20070;-81
2023/08/30 07:42:41;;;;;;;9.05;4.95;;;15.10;99.90;;;;;;4238172;27;20044;-81
2023/08/30 07:44:42;;;;;;;10.27;4.90;;;15.10;99.90;;;;;;4230664;28;20074;-81
2023/08/30 07:46:43;;;;;;;7.80;4.53;;;15.20;99.90;;;;;;4232900;28;20055;-81
2023/08/30 07:48:53;;;;;;;8.23;4.72;;;15.20;99.90;;;;;;4248788;27;20114;-80
2023/08/30 07:50:53;;;;;;;9.88;4.80;;;15.30;99.90;;;;;;4233999;28;20039;-81
2023/08/30 07:52:54;;;;;;;10.38;5.10;;;15.50;99.90;;;;;;4234112;28;20464;-80
2023/08/30 07:54:55;;;;;;;9.10;4.90;;;15.70;99.90;;;;;;4216201;28;20055;-81
2023/08/30 07:56:58;;;;;;;8.57;5.00;;;15.20;99.90;;;;;;4239641;28;20039;-81
2023/08/30 07:59:05;;;;;;;7.68;4.70;;;;;;;;;;4236372;28;20101;-81
2023/08/30 08:01:06;;;;;;;7.63;4.53;;;16.00;99.90;;;;;;4235551;28;20090;-81
2023/08/30 08:03:07;;;;;;;9.00;4.70;;;16.10;99.90;;;;;;4217120;28;20040;-81
2023/08/30 08:05:08;;;;;;;10.30;4.95;;;;;;;;;;4234917;28;20119;-80
2023/08/30 08:07:09;;;;;;;7.93;4.78;;;16.10;99.90;;;;;;4249039;27;20035;-80
2023/08/30 08:09:11;;;;;;;8.38;4.25;;;16.30;99.90;;;;;;4264954;27;20035;-80
2023/08/30 08:11:12;;;;;;;8.85;4.63;;;;;;;;;;4266112;27;20064;-80
2023/08/30 08:13:15;;;;;;;7.03;4.40;;;;;;;;;;4269502;27;20047;-80
2023/08/30 08:15:16;;;;;;;8.25;4.03;;;;;;;;;;4267896;27;20051;-79
2023/08/30 08:17:17;;;;;;;8.40;4.32;;;16.20;99.90;;;;;;4263182;27;20047;-80
2023/08/30 08:19:20;;;;;;;7.38;3.78;;;16.40;99.90;;;;;;4248506;28;20023;-80
2023/08/30 08:21:21;;;;;;;11.63;5.20;;;17.70;99.90;;;;;;4263024;27;20034;-80
2023/08/30 08:23:26;;;;;;;9.40;4.68;;;16.50;99.90;;;;;;4251078;28;20032;-80
2023/08/30 08:25:27;;;;;;;9.02;4.07;;;16.50;99.90;;;;;;4234778;28;20103;-80
2023/08/30 08:27:27;;;;;;;9.73;4.20;;;16.60;99.90;;;;;;4263997;27;20035;-80
2023/08/30 08:29:28;;;;;;;9.50;4.30;;;16.60;99.90;;;;;;4260062;27;20084;-81
2023/08/30 08:31:29;;;;;;;8.93;4.90;;;16.60;99.90;;;;;;4232955;28;20050;-80
2023/08/30 08:33:30;;;;;;;9.55;3.97;;;16.60;99.90;;;;;;4232575;28;20455;-80
2023/08/30 08:35:30;;;;;;;9.93;5.05;;;16.60;99.90;;;;;;4250211;27;20046;-80
2023/08/30 08:37:32;;;;;;;8.23;4.32;;;16.70;99.90;;;;;;4249817;27;20567;-80
2023/08/30 08:39:33;;;;;;;8.73;4.70;;;16.70;99.90;;;;;;4233471;28;20044;-81
2023/08/30 08:41:44;;;;;;;9.30;4.65;;;;;;;;;;4215191;28;20484;-81
2023/08/30 08:43:46;;;;;;;11.60;5.20;;;;;;;;;;4234219;28;20107;-81
2023/08/30 08:45:48;;;;;;;11.60;4.72;;;;;;;;;;4233234;28;20510;-81
2023/08/30 08:47:49;;;;;;;11.10;5.05;;;16.70;99.90;;;;;;4215608;28;20044;-81
2023/08/30 08:49:51;;;;;;;10.63;4.93;;;16.80;99.90;;;;;;4238190;27;20537;-80
2023/08/30 08:51:52;;;;;;;11.07;4.72;;;16.90;99.90;;;;;;4233012;28;20051;-80
2023/08/30 08:54:00;;;;;;;11.10;4.80;;;16.90;99.90;;;;;;4250263;27;20406;-81
2023/08/30 08:56:02;;;;;;;9.18;4.57;;;16.90;99.90;;;;;;4249889;27;20067;-79
2023/08/30 08:58:04;;;;;;;8.75;4.35;;;17.00;99.90;;;;;;4249726;27;20487;-80
2023/08/30 09:00:06;;;;;;;11.45;4.00;;;17.00;99.90;;;;;;4249403;27;20051;-81
2023/08/30 09:02:10;;;;;;;12.38;4.75;;;17.00;99.90;;;;;;4250137;27;20563;-80
2023/08/30 09:04:11;;;;;;;9.98;4.68;;;17.00;99.90;;;;;;4214758;28;20044;-81
2023/08/30 09:06:13;;;;;;;8.73;4.28;;;17.00;99.90;;;;;;4250327;27;20487;-81
2023/08/30 09:08:15;;;;;;;8.75;4.18;;;17.00;99.90;;;;;;4221875;28;20036;-81
2023/08/30 09:10:16;;;;;;;10.38;4.38;;;16.90;99.90;;;;;;4232920;28;20177;-81
2023/08/30 09:12:17;;;;;;;8.90;4.53;;;16.90;99.90;;;;;;4232916;28;20071;-81
2023/08/30 09:14:18;;;;;;;8.40;4.47;;;17.50;99.90;;;;;;4213772;28;20048;-80
2023/08/30 09:16:19;;;;;;;8.40;3.95;;;16.80;99.90;;;;;;4215987;28;20502;-80
2023/08/30 09:18:20;;;;;;;7.47;4.65;;;16.80;99.90;;;;;;4214471;28;20097;-80
2023/08/30 09:20:20;;;;;;;8.65;4.50;;;16.70;99.90;;;;;;4203975;28;20114;-79
2023/08/30 09:22:21;;;;;;;9.50;4.97;;;16.60;99.90;;;;;;4225954;28;20403;-79
2023/08/30 09:24:23;;;;;;;9.10;4.45;;;16.60;99.90;;;;;;4231248;28;20069;-79
2023/08/30 09:26:24;;;;;;;11.35;4.55;;;16.50;99.90;;;;;;4232099;28;20105;-79
2023/08/30 09:28:25;;;;;;;10.48;4.72;;;16.50;99.90;;;;;;4232546;27;20115;-80
2023/08/30 09:30:26;;;;;;;9.63;4.20;;;16.50;99.90;;;;;;4232448;28;20047;-80
2023/08/30 09:32:27;;;;;;;10.20;4.57;;;16.50;99.90;;;;;;4231246;28;20046;-79
2023/08/30 09:34:28;;;;;;;7.90;4.68;;;16.50;99.90;;;;;;4230785;28;20043;-79
2023/08/30 09:36:36;;;;;;;11.18;5.47;;;16.50;99.90;;;;;;4231491;28;20123;-80
2023/08/30 09:38:37;;;;;;;10.60;4.38;;;16.50;99.90;;;;;;4219915;28;20080;-79
2023/08/30 09:40:37;;;;;;;11.25;4.75;;;16.50;99.90;;;;;;4230046;28;20831;-80
2023/08/30 09:42:44;;;;;;;9.55;4.20;;;16.50;99.90;;;;;;4232611;28;20043;-80
2023/08/30 09:44:45;;;;;;;7.25;4.30;;;16.40;99.90;;;;;;4232369;28;20040;-80
2023/08/30 09:46:52;;;;;;;10.80;4.78;;;16.40;99.90;;;;;;4231904;28;20510;-80
2023/08/30 09:48:54;;;;;;;9.10;4.28;;;16.50;99.90;;;;;;4227388;28;20565;-79
2023/08/30 09:50:58;;;;;;;8.73;4.22;;;16.60;99.90;;;;;;4229658;28;20035;-79
2023/08/30 09:53:02;;;;;;;8.20;4.68;;;16.60;99.90;;;;;;4231976;28;20124;-80
2023/08/30 09:55:04;;;;;;;10.82;4.85;;;16.70;99.90;;;;;;4230696;28;20813;-80
2023/08/30 09:57:05;;;;;;;7.85;4.28;;;16.70;99.90;;;;;;4231880;27;20097;-80
2023/08/30 09:59:14;;;;;;;14.35;5.35;;;16.70;99.90;;;;;;4231479;28;20471;-79
2023/08/30 10:01:15;;;;;;;8.85;4.95;;;16.70;99.90;;;;;;4231827;28;20420;-79
2023/08/30 10:03:16;;;;;;;7.72;4.70;;;16.70;99.90;;;;;;4231731;28;20043;-79
2023/08/30 10:05:19;;;;;;;10.18;4.57;;;16.80;99.90;;;;;;4231837;28;20385;-79
2023/08/30 10:07:24;;;;;;;8.65;4.85;;;16.80;99.90;;;;;;4232074;28;20066;-79
2023/08/30 10:09:25;;;;;;;7.07;4.30;;;16.70;99.90;;;;;;4231385;28;20415;-79
2023/08/30 10:11:28;;;;;;;12.60;5.85;;;16.90;99.90;;;;;;4231898;28;20441;-80
2023/08/30 10:13:30;;;;;;;9.15;4.30;;;16.90;99.90;;;;;;4231885;28;20054;-80
2023/08/30 10:15:35;;;;;;;7.57;4.22;;;16.90;99.90;;;;;;4249084;27;20123;-80
2023/08/30 10:17:41;;;;;;;6.95;4.10;;;17.00;99.90;;;;;;4213245;28;20044;-80
2023/08/30 10:19:43;;;;;;;6.18;3.78;;;17.10;99.90;;;;;;4241161;27;20509;-80
2023/08/30 10:21:44;;;;;;;7.47;4.65;;;17.20;99.90;;;;;;4239611;27;20047;-80
2023/08/30 10:23:49;;;;;;;8.27;4.25;;;17.30;99.90;;;;;;4248111;27;20035;-81
2023/08/30 10:25:52;;;;;;;9.27;3.83;;;17.40;99.90;;;;;;4247806;27;20043;-81
2023/08/30 10:27:53;;;;;;;6.90;3.20;;;17.40;99.90;;;;;;4248380;27;20118;-81
2023/08/30 10:29:55;;;;;;;5.40;3.03;;;17.30;99.90;;;;;;4248399;27;20040;-81